Time;durP1;ratioP1;P1;durP2;ratioP2;P2;SDS_P1;SDS_P2;PMS_P1;PMS_P2;Temp;Humidity;BMP_temperature;BMP_pressure;BME280_temperature;BME280_humidity;BME280_pressure;Samples;Min_cycle;Max_cycle;Signal;HPM_P1;HPM_P2
2023/01/28 00:02:02;;;;;;;1.37;0.83;;;1.30;99.90;;;;;;4790289;29;20317;-87
2023/01/28 00:04:28;;;;;;;2.60;1.20;;;1.30;99.90;;;;;;4789588;29;20175;-87
2023/01/28 00:06:53;;;;;;;3.63;1.30;;;1.20;99.90;;;;;;4789838;29;20226;-86
2023/01/28 00:09:19;;;;;;;1.50;0.90;;;1.30;99.90;;;;;;4789590;29;20226;-81
2023/01/28 00:11:45;;;;;;;3.93;0.90;;;1.30;99.90;;;;;;4789222;29;20262;-81
2023/01/28 00:14:11;;;;;;;3.30;0.90;;;1.20;99.90;;;;;;4789288;29;20190;-80
2023/01/28 00:16:37;;;;;;;3.80;1.30;;;1.20;99.90;;;;;;4789496;29;20191;-83
2023/01/28 00:19:03;;;;;;;3.10;1.00;;;1.20;99.90;;;;;;4789041;29;20280;-83
2023/01/28 00:21:28;;;;;;;4.33;0.90;;;1.10;99.90;;;;;;4789339;29;20187;-80
2023/01/28 00:23:55;;;;;;;3.53;0.80;;;1.10;99.90;;;;;;4788490;29;20326;-81
2023/01/28 00:26:22;;;;;;;3.67;1.10;;;1.10;99.90;;;;;;4789446;29;20183;-82
2023/01/28 00:28:48;;;;;;;4.97;1.20;;;1.10;99.90;;;;;;4789245;29;20203;-86
2023/01/28 00:31:16;;;;;;;3.00;0.93;;;1.00;99.90;;;;;;4788550;29;20280;-85
2023/01/28 00:33:46;;;;;;;1.87;0.80;;;1.00;99.90;;;;;;4788567;29;20191;-87
2023/01/28 00:36:13;;;;;;;3.07;1.20;;;1.00;99.90;;;;;;4788923;29;20282;-85
2023/01/28 00:38:41;;;;;;;3.43;0.97;;;1.00;99.90;;;;;;4789016;29;20265;-86
2023/01/28 00:41:16;;;;;;;3.07;1.10;;;1.10;99.90;;;;;;4788987;29;20389;-86
2023/01/28 00:43:43;;;;;;;2.20;0.80;;;1.00;99.90;;;;;;4788760;29;20241;-86
2023/01/28 00:46:11;;;;;;;1.80;0.70;;;1.10;99.90;;;;;;4789132;29;20187;-86
2023/01/28 00:48:38;;;;;;;3.57;1.30;;;1.00;99.90;;;;;;4788996;29;20743;-86
2023/01/28 00:51:05;;;;;;;3.80;1.17;;;0.90;99.90;;;;;;4788766;29;20634;-86
2023/01/28 00:53:33;;;;;;;6.53;1.10;;;0.90;99.90;;;;;;4787461;29;20195;-84
2023/01/28 00:55:59;;;;;;;1.73;0.60;;;0.90;99.90;;;;;;4788935;29;20175;-86
2023/01/28 00:58:25;;;;;;;6.20;0.90;;;0.90;99.90;;;;;;4788566;29;20324;-81
2023/01/28 01:00:51;;;;;;;3.20;1.13;;;0.80;99.90;;;;;;4788733;29;20262;-82
2023/01/28 01:03:18;;;;;;;2.63;0.80;;;0.70;99.90;;;;;;4788592;29;20236;-84
2023/01/28 01:05:44;;;;;;;3.27;0.97;;;0.70;99.90;;;;;;4788489;29;20176;-81
2023/01/28 01:08:09;;;;;;;1.60;1.00;;;0.70;99.90;;;;;;4788689;29;20198;-82
2023/01/28 01:10:37;;;;;;;3.30;0.80;;;0.60;99.90;;;;;;4788800;29;20187;-82
2023/01/28 01:13:05;;;;;;;1.90;0.70;;;0.60;99.90;;;;;;4788366;29;20183;-82
2023/01/28 01:15:31;;;;;;;3.53;0.80;;;0.60;99.90;;;;;;4787475;29;20191;-81
2023/01/28 01:17:57;;;;;;;1.53;0.93;;;0.70;99.90;;;;;;4787451;29;20223;-87
2023/01/28 01:20:26;;;;;;;1.53;0.70;;;0.70;99.90;;;;;;4787036;29;20196;-86
2023/01/28 01:22:51;;;;;;;4.10;0.70;;;0.70;99.90;;;;;;4772213;30;20543;-85
2023/01/28 01:25:18;;;;;;;3.33;0.90;;;0.70;99.90;;;;;;4788572;29;20182;-86
2023/01/28 01:27:47;;;;;;;3.23;0.90;;;0.60;99.90;;;;;;4788428;29;20504;-87
2023/01/28 01:30:13;;;;;;;1.73;0.70;;;0.60;99.90;;;;;;4787095;29;20640;-86
2023/01/28 01:32:38;;;;;;;2.50;0.90;;;0.60;99.90;;;;;;4788244;29;20304;-86
2023/01/28 01:35:06;;;;;;;1.27;0.70;;;0.60;99.90;;;;;;4787607;29;20187;-86
2023/01/28 01:37:33;;;;;;;1.10;0.60;;;0.60;99.90;;;;;;4792175;29;20661;-86
2023/01/28 01:40:01;;;;;;;1.97;0.70;;;0.60;99.90;;;;;;4791927;29;20636;-86
2023/01/28 01:42:27;;;;;;;2.70;0.90;;;0.60;99.90;;;;;;4791941;29;20178;-86
2023/01/28 01:45:03;;;;;;;2.17;0.90;;;0.60;99.90;;;;;;4792314;29;20327;-85
2023/01/28 01:48:05;;;;;;;2.03;0.80;;;0.60;99.90;;;;;;4790568;29;20189;-87
2023/01/28 01:50:41;;;;;;;1.97;0.80;;;0.60;99.90;;;;;;4771084;29;20194;-85
2023/01/28 01:53:13;;;;;;;3.37;0.77;;;0.60;99.90;;;;;;4791817;29;20175;-87
2023/01/28 01:55:42;;;;;;;2.17;1.00;;;0.60;99.90;;;;;;4790509;29;20183;-85
2023/01/28 01:58:13;;;;;;;2.00;0.90;;;0.60;99.90;;;;;;4791754;29;20690;-85
2023/01/28 02:00:40;;;;;;;1.80;0.80;;;0.60;99.90;;;;;;4791654;29;20631;-85
2023/01/28 02:03:07;;;;;;;2.17;0.93;;;0.60;99.90;;;;;;4791387;29;20190;-83
2023/01/28 02:05:33;;;;;;;1.33;0.93;;;0.60;99.90;;;;;;4791379;29;20192;-83
2023/01/28 02:08:19;;;;;;;3.80;0.90;;;0.60;99.90;;;;;;4790222;29;20190;-82
2023/01/28 02:10:51;;;;;;;6.40;2.20;;;0.60;99.90;;;;;;4791463;29;20291;-82
2023/01/28 02:13:20;;;;;;;6.43;1.97;;;0.50;99.90;;;;;;4791280;29;20171;-84
2023/01/28 02:15:47;;;;;;;3.10;1.60;;;0.60;99.90;;;;;;4791457;29;20521;-83
2023/01/28 02:18:13;;;;;;;3.57;1.50;;;0.50;99.90;;;;;;4791026;29;20211;-82
2023/01/28 02:20:57;;;;;;;3.30;1.80;;;0.50;99.90;;;;;;4790962;29;20210;-83
2023/01/28 02:23:49;;;;;;;6.10;2.60;;;0.60;99.90;;;;;;4791130;29;20243;-83
2023/01/28 02:26:36;;;;;;;3.63;1.90;;;0.50;99.90;;;;;;4791286;29;20644;-82
2023/01/28 02:29:11;;;;;;;3.33;1.50;;;0.50;99.90;;;;;;4789628;29;20530;-84
2023/01/28 02:31:51;;;;;;;2.23;0.87;;;0.50;99.90;;;;;;4790963;29;20191;-82
2023/01/28 02:34:26;;;;;;;5.17;1.40;;;0.60;99.90;;;;;;4790696;29;20184;-83
2023/01/28 02:37:00;;;;;;;3.13;1.60;;;0.60;99.90;;;;;;4791168;29;20197;-82
2023/01/28 02:39:31;;;;;;;4.50;1.63;;;0.60;99.90;;;;;;4790897;29;20220;-81
2023/01/28 02:42:06;;;;;;;3.60;1.10;;;0.60;99.90;;;;;;4790848;29;20625;-86
2023/01/28 02:44:32;;;;;;;1.63;0.60;;;0.60;99.90;;;;;;4790914;29;20207;-85
2023/01/28 02:49:53;;;;;;;3.40;1.00;;;0.70;99.90;;;;;;4790894;30;20515;-83
2023/01/28 02:55:17;;;;;;;3.67;1.00;;;0.70;99.90;;;;;;4791005;30;20246;-85
2023/01/28 02:58:10;;;;;;;1.93;0.87;;;0.70;99.90;;;;;;4790913;29;20203;-85
2023/01/28 03:00:53;;;;;;;2.10;0.70;;;0.70;99.90;;;;;;4790272;29;20197;-86
2023/01/28 03:06:05;;;;;;;1.23;0.80;;;0.80;99.90;;;;;;4751023;30;20243;-82
2023/01/28 03:36:49;;;;;;;1.67;0.80;;;0.80;99.90;;;;;;4754834;30;20302;-82
2023/01/28 03:39:17;;;;;;;2.50;0.63;;;0.80;99.90;;;;;;4753169;30;20223;-82
2023/01/28 03:41:54;;;;;;;4.13;0.70;;;0.80;99.90;;;;;;4753209;30;20188;-82
2023/01/28 03:47:06;;;;;;;2.20;0.70;;;0.80;99.90;;;;;;4754776;30;20179;-82
2023/01/28 03:49:31;;;;;;;0.80;0.53;;;0.80;99.90;;;;;;4752897;30;20193;-82
2023/01/28 03:51:57;;;;;;;3.80;0.80;;;0.90;99.90;;;;;;4752579;30;20192;-82
2023/01/28 03:54:22;;;;;;;2.20;0.90;;;0.80;99.90;;;;;;4752612;30;20196;-82
2023/01/28 03:56:48;;;;;;;2.93;1.00;;;0.80;99.90;;;;;;4753970;30;20188;-81
2023/01/28 03:59:14;;;;;;;0.77;0.50;;;0.90;99.90;;;;;;4751912;30;20227;-81
2023/01/28 04:01:39;;;;;;;1.50;0.97;;;0.90;99.90;;;;;;4753031;30;20622;-81
2023/01/28 04:04:05;;;;;;;1.47;0.70;;;0.90;99.90;;;;;;4753140;30;20248;-81
2023/01/28 04:06:31;;;;;;;1.57;0.57;;;1.00;99.90;;;;;;4751351;30;20192;-82
2023/01/28 04:08:58;;;;;;;0.60;0.50;;;1.00;99.90;;;;;;4766091;30;20518;-81
2023/01/28 04:11:25;;;;;;;1.33;0.70;;;1.00;99.90;;;;;;4766071;30;20199;-81
2023/01/28 04:13:51;;;;;;;1.37;0.57;;;1.10;99.90;;;;;;4766182;30;20246;-81
2023/01/28 04:16:19;;;;;;;1.40;0.73;;;1.10;99.90;;;;;;4766788;30;20569;-82
2023/01/28 04:18:45;;;;;;;2.63;0.70;;;1.10;99.90;;;;;;4766827;30;20273;-81
2023/01/28 04:21:11;;;;;;;1.17;0.60;;;1.00;99.90;;;;;;4753587;30;20185;-81
2023/01/28 04:23:37;;;;;;;3.90;0.70;;;1.00;99.90;;;;;;4766981;30;20220;-82
2023/01/28 04:26:03;;;;;;;1.67;0.50;;;1.00;99.90;;;;;;4767333;30;20629;-82
2023/01/28 04:28:29;;;;;;;0.80;0.40;;;0.90;99.90;;;;;;4767284;30;20192;-82
2023/01/28 04:30:55;;;;;;;0.70;0.50;;;0.90;99.90;;;;;;4767324;30;20193;-82
2023/01/28 04:33:21;;;;;;;1.57;0.77;;;0.90;99.90;;;;;;4753232;30;20185;-82
2023/01/28 04:35:46;;;;;;;0.73;0.40;;;0.90;99.90;;;;;;4759793;30;20203;-82
2023/01/28 04:38:12;;;;;;;1.77;0.60;;;0.90;99.90;;;;;;4751915;30;20220;-81
2023/01/28 04:40:38;;;;;;;1.43;0.60;;;0.80;99.90;;;;;;4753494;30;20181;-82
2023/01/28 04:43:03;;;;;;;0.70;0.53;;;0.90;99.90;;;;;;4751900;30;20541;-80
2023/01/28 04:45:29;;;;;;;1.70;0.60;;;0.90;99.90;;;;;;4767134;30;20189;-82
2023/01/28 04:47:55;;;;;;;2.80;0.67;;;1.10;99.90;;;;;;4752000;30;20279;-81
2023/01/28 04:50:21;;;;;;;2.30;0.70;;;1.00;99.90;;;;;;4766613;30;20701;-82
2023/01/28 04:52:47;;;;;;;3.07;0.60;;;1.10;99.90;;;;;;4752924;30;20715;-81
2023/01/28 04:55:12;;;;;;;1.37;0.90;;;1.10;99.90;;;;;;4751706;30;20192;-82
2023/01/28 04:57:38;;;;;;;2.50;0.70;;;1.10;99.90;;;;;;4751824;30;20220;-82
2023/01/28 05:00:04;;;;;;;1.70;0.67;;;1.10;99.90;;;;;;4753397;30;20530;-81
2023/01/28 05:02:30;;;;;;;2.47;0.70;;;1.10;99.90;;;;;;4753027;30;20181;-82
2023/01/28 05:04:56;;;;;;;0.83;0.53;;;1.10;99.90;;;;;;4765811;30;20701;-82
2023/01/28 05:07:22;;;;;;;0.73;0.47;;;1.00;99.90;;;;;;4752973;30;20199;-81
2023/01/28 05:09:47;;;;;;;1.23;0.50;;;1.00;99.90;;;;;;4751662;30;20219;-81
2023/01/28 05:12:13;;;;;;;0.77;0.60;;;1.00;99.90;;;;;;4751864;30;20200;-81
2023/01/28 05:14:39;;;;;;;2.67;0.50;;;1.00;99.90;;;;;;4763095;30;20200;-80
2023/01/28 05:17:04;;;;;;;1.53;0.53;;;0.90;99.90;;;;;;4770819;30;20192;-81
2023/01/28 05:19:30;;;;;;;3.80;0.80;;;0.90;99.90;;;;;;4772201;29;20221;-81
2023/01/28 05:21:56;;;;;;;1.97;0.70;;;0.90;99.90;;;;;;4748534;30;20231;-81
2023/01/28 05:24:21;;;;;;;1.20;0.60;;;0.90;99.90;;;;;;4748301;30;20203;-82
2023/01/28 05:26:47;;;;;;;1.87;0.80;;;0.90;99.90;;;;;;4734072;30;20636;-81
2023/01/28 05:29:12;;;;;;;0.93;0.53;;;0.90;99.90;;;;;;4748605;30;20189;-81
2023/01/28 05:31:38;;;;;;;1.83;0.50;;;0.90;99.90;;;;;;4734046;30;20200;-81
2023/01/28 05:34:04;;;;;;;0.90;0.40;;;0.80;99.90;;;;;;4734759;30;20188;-81
2023/01/28 05:36:29;;;;;;;1.80;0.53;;;0.80;99.90;;;;;;4735094;30;20618;-82
2023/01/28 05:38:55;;;;;;;1.20;0.50;;;0.80;99.90;;;;;;4733943;30;20216;-81
2023/01/28 05:41:21;;;;;;;2.00;0.60;;;0.80;99.90;;;;;;4733988;30;20189;-82
2023/01/28 05:43:46;;;;;;;1.70;0.53;;;0.90;99.90;;;;;;4735160;30;20197;-82
2023/01/28 05:46:12;;;;;;;0.80;0.60;;;1.00;99.90;;;;;;4734098;30;20200;-82
2023/01/28 05:48:37;;;;;;;1.37;0.67;;;0.90;99.90;;;;;;4733682;30;20531;-81
2023/01/28 05:51:04;;;;;;;0.90;0.70;;;0.90;99.90;;;;;;4749471;30;20192;-81
2023/01/28 05:53:30;;;;;;;2.47;0.70;;;1.00;99.90;;;;;;4750787;30;20203;-82
2023/01/28 05:55:56;;;;;;;2.20;0.77;;;1.00;99.90;;;;;;4752218;30;20192;-81
2023/01/28 05:58:22;;;;;;;1.63;0.80;;;1.00;99.90;;;;;;4752521;30;20220;-81
2023/01/28 06:00:48;;;;;;;1.50;0.70;;;1.10;99.90;;;;;;4751253;30;20632;-81
2023/01/28 06:03:13;;;;;;;2.90;0.80;;;1.00;99.90;;;;;;4751053;30;20196;-81
2023/01/28 06:05:39;;;;;;;1.70;0.83;;;1.00;99.90;;;;;;4750957;30;20232;-81
2023/01/28 06:08:05;;;;;;;2.53;0.70;;;1.00;99.90;;;;;;4763749;30;20246;-82
2023/01/28 06:10:31;;;;;;;1.37;0.80;;;0.90;99.90;;;;;;4750830;30;20283;-83
2023/01/28 06:12:56;;;;;;;1.00;0.67;;;0.80;99.90;;;;;;4750957;30;20335;-82
2023/01/28 06:15:22;;;;;;;7.87;2.40;;;0.80;99.90;;;;;;4766190;30;20189;-82
2023/01/28 06:17:48;;;;;;;4.70;1.73;;;0.80;99.90;;;;;;4752573;30;20219;-83
2023/01/28 06:20:15;;;;;;;2.33;1.20;;;0.80;99.90;;;;;;4751105;30;20703;-82
2023/01/28 06:22:41;;;;;;;1.33;0.70;;;0.80;99.90;;;;;;4754236;30;20520;-82
2023/01/28 06:25:08;;;;;;;1.33;0.60;;;0.80;99.90;;;;;;4754703;30;20192;-82
2023/01/28 06:27:34;;;;;;;0.80;0.60;;;0.80;99.90;;;;;;4755511;30;20198;-82
2023/01/28 06:30:00;;;;;;;4.87;1.13;;;0.80;99.90;;;;;;4755528;30;20539;-81
2023/01/28 06:32:26;;;;;;;0.80;0.67;;;0.80;99.90;;;;;;4754149;30;20629;-82
2023/01/28 06:34:52;;;;;;;1.57;0.93;;;0.80;99.90;;;;;;4754600;30;20280;-82
2023/01/28 06:37:17;;;;;;;1.73;1.00;;;0.80;99.90;;;;;;4753773;30;20189;-82
2023/01/28 06:39:43;;;;;;;1.33;0.73;;;0.80;99.90;;;;;;4753919;30;20657;-82
2023/01/28 06:42:09;;;;;;;2.03;0.90;;;0.90;99.90;;;;;;4754313;30;20254;-82
2023/01/28 06:44:34;;;;;;;0.80;0.50;;;0.90;99.90;;;;;;4754815;30;20197;-84
2023/01/28 06:47:00;;;;;;;0.97;0.70;;;0.80;99.90;;;;;;4753688;30;20271;-83
2023/01/28 06:49:26;;;;;;;1.63;0.67;;;0.80;99.90;;;;;;4754105;30;20261;-82
2023/01/28 06:51:52;;;;;;;5.50;0.70;;;0.80;99.90;;;;;;4754072;30;20204;-82
2023/01/28 06:54:17;;;;;;;1.23;0.80;;;0.90;99.90;;;;;;4753265;30;20184;-82
2023/01/28 06:56:43;;;;;;;1.43;0.60;;;0.90;99.90;;;;;;4754158;30;20196;-83
2023/01/28 06:59:08;;;;;;;2.30;0.80;;;0.90;99.90;;;;;;4754082;30;20224;-82
2023/01/28 07:01:34;;;;;;;0.80;0.63;;;0.90;99.90;;;;;;4754240;30;20279;-83
2023/01/28 07:04:00;;;;;;;3.53;0.83;;;0.90;99.90;;;;;;4754724;30;20228;-83
2023/01/28 07:06:25;;;;;;;2.20;0.90;;;0.80;99.90;;;;;;4755298;30;20544;-83
2023/01/28 07:08:51;;;;;;;1.80;0.60;;;0.80;99.90;;;;;;4754145;30;20197;-82
2023/01/28 07:11:17;;;;;;;0.50;0.50;;;0.70;99.90;;;;;;4754309;30;20287;-82
2023/01/28 07:13:43;;;;;;;1.47;0.70;;;0.80;99.90;;;;;;4754118;30;20644;-83
2023/01/28 07:16:09;;;;;;;1.57;0.70;;;0.80;99.90;;;;;;4754400;30;20211;-83
2023/01/28 07:18:35;;;;;;;2.57;0.80;;;0.80;99.90;;;;;;4753838;30;20221;-83
2023/01/28 07:21:01;;;;;;;2.07;0.70;;;0.80;99.90;;;;;;4753898;30;20232;-81
2023/01/28 07:23:26;;;;;;;1.37;0.63;;;0.80;99.90;;;;;;4754816;30;20189;-81
2023/01/28 07:25:52;;;;;;;2.60;0.70;;;0.80;99.90;;;;;;4768456;30;20259;-82
2023/01/28 07:28:20;;;;;;;1.97;0.90;;;0.80;99.90;;;;;;4768481;30;20246;-81
2023/01/28 07:30:52;;;;;;;1.10;0.57;;;0.70;99.90;;;;;;4768274;30;20538;-81
2023/01/28 07:33:17;;;;;;;1.60;0.70;;;0.80;99.90;;;;;;4767799;30;20252;-82
2023/01/28 07:35:44;;;;;;;1.40;0.67;;;0.70;99.90;;;;;;4754322;30;20188;-82
2023/01/28 07:38:10;;;;;;;2.13;0.70;;;0.70;99.90;;;;;;4768170;30;20238;-82
2023/01/28 07:40:36;;;;;;;0.90;0.63;;;0.80;99.90;;;;;;4768549;30;20685;-82
2023/01/28 07:43:02;;;;;;;0.73;0.60;;;0.80;99.90;;;;;;4768080;30;20200;-82
2023/01/28 07:45:29;;;;;;;2.23;0.80;;;0.80;99.90;;;;;;4768028;30;20192;-81
2023/01/28 07:48:06;;;;;;;4.63;1.10;;;0.80;99.90;;;;;;4768092;30;20204;-82
2023/01/28 07:50:34;;;;;;;1.20;0.83;;;0.80;99.90;;;;;;4767687;30;20200;-82
2023/01/28 07:53:03;;;;;;;1.83;0.90;;;0.80;99.90;;;;;;4767432;30;20200;-82
2023/01/28 07:55:29;;;;;;;4.37;1.20;;;0.80;99.90;;;;;;4768111;30;20341;-83
2023/01/28 07:57:57;;;;;;;2.63;1.20;;;0.80;99.90;;;;;;4767681;30;20311;-82
2023/01/28 08:00:25;;;;;;;4.47;1.20;;;0.90;99.90;;;;;;4767563;30;20184;-82
2023/01/28 08:02:59;;;;;;;4.63;1.30;;;0.90;99.90;;;;;;4753935;30;20303;-82
2023/01/28 08:05:29;;;;;;;1.43;0.93;;;0.90;99.90;;;;;;4767289;30;20244;-83
2023/01/28 08:07:56;;;;;;;4.30;1.10;;;0.90;99.90;;;;;;4767664;30;20257;-83
2023/01/28 08:10:22;;;;;;;3.73;0.93;;;0.90;99.90;;;;;;4753997;30;20549;-82
2023/01/28 08:12:57;;;;;;;3.07;1.23;;;0.90;99.90;;;;;;4767148;30;20771;-81
2023/01/28 08:15:23;;;;;;;3.43;1.80;;;0.90;99.90;;;;;;4767642;30;20212;-84
2023/01/28 08:17:49;;;;;;;5.63;1.80;;;0.90;99.90;;;;;;4767763;30;20305;-84
2023/01/28 08:20:15;;;;;;;3.33;2.07;;;0.90;99.90;;;;;;4753765;30;20616;-83
2023/01/28 08:22:41;;;;;;;3.67;1.57;;;0.90;99.90;;;;;;4754019;30;20185;-82
2023/01/28 08:25:06;;;;;;;4.70;1.60;;;0.90;99.90;;;;;;4752649;30;20193;-84
2023/01/28 08:27:32;;;;;;;4.27;1.60;;;0.90;99.90;;;;;;4746639;30;20209;-83
2023/01/28 08:29:58;;;;;;;7.73;1.10;;;0.90;99.90;;;;;;4745938;30;20235;-84
2023/01/28 08:32:23;;;;;;;4.70;1.37;;;0.90;99.90;;;;;;4758270;30;20259;-84
2023/01/28 08:34:49;;;;;;;3.40;1.13;;;0.90;99.90;;;;;;4752433;30;20250;-83
2023/01/28 08:37:15;;;;;;;1.47;0.90;;;1.00;99.90;;;;;;4752423;30;20206;-83
2023/01/28 08:39:41;;;;;;;5.73;1.33;;;0.90;99.90;;;;;;4753691;30;20231;-83
2023/01/28 08:42:08;;;;;;;5.13;2.13;;;1.00;99.90;;;;;;4767484;30;20511;-82
2023/01/28 08:44:34;;;;;;;2.70;1.23;;;1.00;99.90;;;;;;4766591;30;20655;-81
2023/01/28 08:46:59;;;;;;;2.40;1.50;;;1.00;99.90;;;;;;4753688;30;20275;-82
2023/01/28 08:49:25;;;;;;;3.80;2.47;;;1.00;99.90;;;;;;4753310;30;20223;-81
2023/01/28 08:51:51;;;;;;;2.53;1.57;;;1.00;99.90;;;;;;4753349;30;20203;-81
2023/01/28 08:54:16;;;;;;;7.53;3.20;;;1.10;99.90;;;;;;4751961;30;20271;-81
2023/01/28 08:56:43;;;;;;;10.27;4.10;;;1.20;99.90;;;;;;4751837;30;20227;-81
2023/01/28 08:59:10;;;;;;;8.00;3.73;;;1.20;99.90;;;;;;4752003;30;20255;-82
2023/01/28 09:01:36;;;;;;;2.00;1.30;;;1.20;99.90;;;;;;4752049;30;20613;-81
2023/01/28 09:04:02;;;;;;;5.53;2.40;;;1.30;99.90;;;;;;4752873;30;20232;-81
2023/01/28 09:06:28;;;;;;;3.60;1.40;;;1.30;99.90;;;;;;4765620;30;20203;-81
2023/01/28 09:08:58;;;;;;;2.87;1.63;;;1.30;99.90;;;;;;4751736;30;20189;-82
2023/01/28 09:11:25;;;;;;;4.47;2.20;;;1.30;99.90;;;;;;4752275;30;20262;-82
2023/01/28 09:13:50;;;;;;;3.23;1.57;;;1.40;99.90;;;;;;4751817;30;20188;-82
2023/01/28 09:16:16;;;;;;;4.17;1.70;;;1.50;99.90;;;;;;4752007;30;20189;-81
2023/01/28 09:18:42;;;;;;;2.63;1.50;;;1.50;99.90;;;;;;4753113;30;20699;-82
2023/01/28 09:21:07;;;;;;;1.93;1.10;;;1.50;99.90;;;;;;4751649;30;20188;-81
2023/01/28 09:23:35;;;;;;;5.33;1.60;;;1.50;99.90;;;;;;4752422;30;20185;-81
2023/01/28 09:26:02;;;;;;;3.57;1.40;;;1.60;99.90;;;;;;4751587;30;20653;-81
2023/01/28 09:28:29;;;;;;;3.43;1.10;;;1.60;99.90;;;;;;4751686;30;20180;-81
2023/01/28 09:31:06;;;;;;;2.07;0.90;;;1.70;99.90;;;;;;4752891;30;20189;-81
2023/01/28 09:33:33;;;;;;;1.40;0.90;;;1.70;99.90;;;;;;4752855;30;20183;-81
2023/01/28 09:36:00;;;;;;;1.67;0.93;;;1.80;99.90;;;;;;4751271;30;20282;-81
2023/01/28 09:38:26;;;;;;;3.53;1.20;;;1.80;99.90;;;;;;4752635;30;20213;-80
2023/01/28 09:40:52;;;;;;;2.70;1.10;;;1.70;99.90;;;;;;4752831;30;20181;-80
2023/01/28 09:43:26;;;;;;;1.13;0.90;;;1.80;99.90;;;;;;4752673;30;20184;-81
2023/01/28 09:45:56;;;;;;;2.93;0.90;;;1.70;99.90;;;;;;4766440;30;20230;-81
2023/01/28 09:48:32;;;;;;;2.53;1.07;;;1.60;99.90;;;;;;4766376;30;20629;-81
2023/01/28 09:51:00;;;;;;;2.13;1.17;;;1.50;99.90;;;;;;4766001;30;20199;-81
2023/01/28 09:53:38;;;;;;;2.73;1.20;;;1.50;99.90;;;;;;4765978;30;20188;-79
2023/01/28 09:56:19;;;;;;;2.10;1.23;;;1.50;99.90;;;;;;4753256;30;20284;-81
2023/01/28 09:58:45;;;;;;;3.87;1.30;;;1.40;99.90;;;;;;4769478;30;20564;-82
2023/01/28 10:01:43;;;;;;;2.17;1.10;;;1.40;99.90;;;;;;4755209;30;20202;-82
2023/01/28 10:04:34;;;;;;;3.87;1.30;;;1.40;99.90;;;;;;4755089;30;20228;-82
2023/01/28 10:07:59;;;;;;;5.00;1.20;;;1.40;99.90;;;;;;4738822;30;20177;-82
2023/01/28 10:10:32;;;;;;;2.07;1.00;;;1.50;99.90;;;;;;4719054;30;20191;-81
2023/01/28 10:13:15;;;;;;;1.60;0.77;;;1.40;99.90;;;;;;4718906;30;20627;-81
2023/01/28 10:15:49;;;;;;;1.30;0.90;;;1.40;99.90;;;;;;4744148;30;20202;-82
2023/01/28 10:18:15;;;;;;;3.13;1.00;;;1.40;99.90;;;;;;4768710;30;20254;-81
2023/01/28 10:20:43;;;;;;;2.23;0.90;;;1.40;99.90;;;;;;4746405;30;20280;-81
2023/01/28 10:23:30;;;;;;;2.47;1.23;;;1.40;99.90;;;;;;4767521;30;20609;-82
2023/01/28 10:25:59;;;;;;;2.27;1.60;;;1.30;99.90;;;;;;4768563;30;20222;-82
2023/01/28 10:28:28;;;;;;;2.27;1.50;;;1.30;99.90;;;;;;4768846;30;20689;-80
2023/01/28 10:30:54;;;;;;;3.30;1.10;;;1.30;99.90;;;;;;4754139;30;20197;-80
2023/01/28 10:33:36;;;;;;;2.07;1.20;;;1.30;99.90;;;;;;4754215;30;20576;-81
2023/01/28 10:36:03;;;;;;;3.60;1.47;;;1.20;99.90;;;;;;4750491;30;20211;-81
2023/01/28 10:38:30;;;;;;;4.50;2.10;;;1.30;99.90;;;;;;4754625;30;20330;-82
2023/01/28 10:41:04;;;;;;;2.73;1.60;;;1.30;99.90;;;;;;4753977;30;20197;-82
2023/01/28 10:43:32;;;;;;;3.57;2.00;;;1.30;99.90;;;;;;4754156;30;20203;-81
2023/01/28 10:46:02;;;;;;;5.33;1.90;;;1.20;99.90;;;;;;4753982;30;20203;-81
2023/01/28 10:48:44;;;;;;;4.40;2.40;;;1.20;99.90;;;;;;4755391;30;20552;-81
2023/01/28 10:51:10;;;;;;;3.23;1.80;;;1.20;99.90;;;;;;4754276;30;20210;-82
2023/01/28 10:53:44;;;;;;;2.70;1.37;;;1.20;99.90;;;;;;4754023;30;20193;-81
2023/01/28 10:56:26;;;;;;;2.73;1.70;;;1.20;99.90;;;;;;4755176;30;20547;-82
2023/01/28 10:59:02;;;;;;;3.23;1.43;;;1.30;99.90;;;;;;4754330;30;20232;-82
2023/01/28 11:01:56;;;;;;;2.07;1.70;;;1.30;99.90;;;;;;4768971;30;20261;-84
2023/01/28 11:04:31;;;;;;;4.07;1.97;;;1.30;99.90;;;;;;4754575;30;20743;-81
2023/01/28 11:06:58;;;;;;;4.30;1.97;;;1.40;99.90;;;;;;4735819;30;20639;-83
2023/01/28 11:09:33;;;;;;;6.80;2.93;;;1.30;99.90;;;;;;4750890;30;20223;-82
2023/01/28 11:12:18;;;;;;;2.87;1.93;;;1.30;99.90;;;;;;4737122;30;20181;-83
2023/01/28 11:14:52;;;;;;;4.20;2.40;;;1.20;99.90;;;;;;4750768;30;20185;-82
2023/01/28 11:17:21;;;;;;;4.20;3.03;;;1.20;99.90;;;;;;4750814;30;20215;-82
2023/01/28 11:19:47;;;;;;;7.03;3.03;;;1.30;99.90;;;;;;4749989;30;20215;-82
2023/01/28 11:22:34;;;;;;;5.30;3.20;;;1.30;99.90;;;;;;4758295;30;20249;-83
2023/01/28 11:25:17;;;;;;;5.10;3.00;;;1.30;99.90;;;;;;4754722;30;20497;-82
2023/01/28 11:27:47;;;;;;;4.33;3.00;;;1.30;99.90;;;;;;4753549;30;20199;-81
2023/01/28 11:30:39;;;;;;;4.37;2.90;;;1.40;99.90;;;;;;4758996;30;20194;-81
2023/01/28 11:33:44;;;;;;;3.87;2.97;;;1.40;99.90;;;;;;4780633;30;20529;-81
2023/01/28 11:36:28;;;;;;;7.10;2.90;;;1.50;99.90;;;;;;4749018;30;20212;-81
2023/01/28 11:38:57;;;;;;;4.43;2.43;;;1.40;99.90;;;;;;4754251;30;20215;-81
2023/01/28 11:41:34;;;;;;;7.13;2.80;;;1.30;99.90;;;;;;4752995;30;20195;-81
2023/01/28 11:44:21;;;;;;;5.53;2.50;;;1.30;99.90;;;;;;4754165;30;20177;-81
2023/01/28 11:47:18;;;;;;;4.17;2.60;;;1.30;99.90;;;;;;4752981;30;20184;-81
2023/01/28 11:49:46;;;;;;;2.33;1.87;;;1.30;99.90;;;;;;4753846;30;20271;-83
2023/01/28 11:52:21;;;;;;;5.50;2.20;;;1.30;99.90;;;;;;4752773;30;20601;-81
2023/01/28 11:54:53;;;;;;;3.97;1.93;;;1.40;99.90;;;;;;4753905;30;20183;-80
2023/01/28 11:57:46;;;;;;;7.00;2.43;;;1.40;99.90;;;;;;4753977;30;20242;-81
2023/01/28 12:00:21;;;;;;;6.17;1.70;;;1.40;99.90;;;;;;4751584;30;20227;-81
2023/01/28 12:03:04;;;;;;;5.70;2.10;;;1.40;99.90;;;;;;4753279;30;20208;-80
2023/01/28 12:05:42;;;;;;;2.80;1.57;;;1.50;99.90;;;;;;4752017;30;20259;-81
2023/01/28 12:08:39;;;;;;;2.57;1.73;;;1.40;99.90;;;;;;4753441;30;20184;-80
2023/01/28 12:11:06;;;;;;;3.67;1.60;;;1.40;99.90;;;;;;4734193;30;20235;-80
2023/01/28 12:13:57;;;;;;;3.37;1.90;;;1.50;99.90;;;;;;4752182;30;20208;-80
2023/01/28 12:16:38;;;;;;;3.60;1.70;;;1.50;99.90;;;;;;4752527;30;20188;-80
2023/01/28 12:19:38;;;;;;;1.83;1.27;;;1.50;99.90;;;;;;4752125;30;20299;-80
2023/01/28 12:22:06;;;;;;;1.30;1.20;;;1.50;99.90;;;;;;4752117;30;20187;-80
2023/01/28 12:25:03;;;;;;;4.40;1.63;;;1.50;99.90;;;;;;4752015;30;20200;-81
2023/01/28 12:27:28;;;;;;;1.53;1.00;;;1.50;99.90;;;;;;4752021;30;20648;-81
2023/01/28 12:30:20;;;;;;;2.73;1.17;;;1.60;99.90;;;;;;4752348;30;20279;-82
2023/01/28 12:33:25;;;;;;;3.60;1.03;;;1.60;99.90;;;;;;4727084;30;20291;-81
2023/01/28 12:36:17;;;;;;;1.23;1.00;;;1.70;99.90;;;;;;4752623;30;20219;-80
2023/01/28 12:39:02;;;;;;;2.93;1.17;;;1.60;99.90;;;;;;4747978;30;20239;-81
2023/01/28 12:41:34;;;;;;;2.43;1.30;;;1.60;99.90;;;;;;4753174;30;20177;-82
2023/01/28 12:44:08;;;;;;;1.47;0.90;;;1.60;99.90;;;;;;4751866;30;20218;-81
2023/01/28 12:46:44;;;;;;;4.23;1.60;;;1.70;99.90;;;;;;4752100;30;20555;-82
2023/01/28 12:49:28;;;;;;;2.47;1.00;;;1.70;99.90;;;;;;4753157;30;20200;-82
2023/01/28 12:52:02;;;;;;;3.33;1.43;;;1.80;99.90;;;;;;4752658;30;20185;-81
2023/01/28 12:54:40;;;;;;;1.80;1.07;;;1.90;99.90;;;;;;4753121;30;20184;-80
2023/01/28 12:57:13;;;;;;;2.43;1.23;;;2.10;99.90;;;;;;4753003;30;20185;-81
2023/01/28 13:00:05;;;;;;;2.83;1.40;;;2.30;99.90;;;;;;4752961;30;20212;-81
2023/01/28 13:02:44;;;;;;;1.63;1.20;;;2.40;99.90;;;;;;4751551;30;20173;-82
2023/01/28 13:05:26;;;;;;;2.30;1.40;;;2.60;99.90;;;;;;4751366;30;20244;-82
2023/01/28 13:08:10;;;;;;;3.30;1.27;;;2.60;99.90;;;;;;4751837;30;20181;-81
2023/01/28 13:10:42;;;;;;;2.27;1.27;;;2.70;99.90;;;;;;4752773;30;20173;-81
2023/01/28 13:13:24;;;;;;;4.27;1.40;;;2.80;99.90;;;;;;4752737;30;20645;-81
2023/01/28 13:15:50;;;;;;;2.63;1.70;;;2.80;99.90;;;;;;4753043;30;20184;-81
2023/01/28 13:18:44;;;;;;;2.53;1.40;;;2.80;99.90;;;;;;4751517;30;20209;-81
2023/01/28 13:21:31;;;;;;;1.90;1.50;;;2.50;99.90;;;;;;4752224;30;20201;-81
2023/01/28 13:24:17;;;;;;;2.10;1.50;;;2.20;99.90;;;;;;4752687;30;20177;-82
2023/01/28 13:26:48;;;;;;;11.80;2.10;;;2.20;99.90;;;;;;4751590;30;20195;-81
2023/01/28 13:29:13;;;;;;;3.67;1.30;;;2.30;99.90;;;;;;4751731;30;20215;-81
2023/01/28 13:31:42;;;;;;;4.97;1.60;;;2.20;99.90;;;;;;4756537;30;20590;-81
2023/01/28 13:34:25;;;;;;;13.57;1.70;;;2.10;99.90;;;;;;4758489;30;20690;-81
2023/01/28 13:36:51;;;;;;;6.07;1.73;;;2.10;99.90;;;;;;4757061;30;20504;-81
2023/01/28 13:39:24;;;;;;;4.17;1.93;;;2.10;99.90;;;;;;4757250;30;20219;-81
2023/01/28 13:41:55;;;;;;;5.37;1.97;;;2.00;99.90;;;;;;4756984;30;20264;-81
2023/01/28 13:44:30;;;;;;;12.60;1.90;;;2.00;99.90;;;;;;4757449;30;20518;-80
2023/01/28 13:47:07;;;;;;;4.70;1.80;;;2.10;99.90;;;;;;4757111;30;20181;-80
2023/01/28 13:49:46;;;;;;;3.67;1.63;;;2.00;99.90;;;;;;4756619;30;20203;-80
2023/01/28 13:52:11;;;;;;;3.03;1.70;;;2.00;99.90;;;;;;4756618;30;20480;-81
2023/01/28 13:54:42;;;;;;;4.87;1.70;;;1.90;99.90;;;;;;4757125;30;20234;-82
2023/01/28 13:57:14;;;;;;;3.27;1.60;;;1.90;99.90;;;;;;4756704;30;20181;-81